PIZ15 LSZH-LSZS
Flight info
| Callsign | PIZ15 |
|---|---|
| Flight time | 0h 28m |
| Altitude | 18000 |
| Route | DEGES3W DEGES Y170 ARGAX L613 RONAG DCT |
| Aircraft | PC12/L-VGDW/C |
Departure
| Time | 2026-05-05 18:24 |
|---|---|
| Airport | Zürich Airport (LSZH) |
Arrival
| Time | 2026-05-05 18:52 |
|---|---|
| Airport | Engadin Airport (LSZS) |
| Time | Latitude | Longitude | Altitude | Speed | Heading |
|---|---|---|---|---|---|
| 2026-05-05 18:16 | 47.45395 | 8.57319 | 1393 ft | 0 kts | 6° |
| 2026-05-05 18:21 | 47.45409 | 8.57312 | 1397 ft | 6 kts | 284° |
| 2026-05-05 18:21 | 47.45413 | 8.57257 | 1393 ft | 1 kts | 274° |
| 2026-05-05 18:22 | 47.45482 | 8.57199 | 1393 ft | 25 kts | 355° |
| 2026-05-05 18:22 | 47.45541 | 8.57145 | 1404 ft | 6 kts | 327° |
| 2026-05-05 18:22 | 47.45554 | 8.57082 | 1394 ft | 2 kts | 275° |
| 2026-05-05 18:22 | 47.45558 | 8.57047 | 1394 ft | 16 kts | 287° |
| 2026-05-05 18:23 | 47.45670 | 8.56958 | 1394 ft | 24 kts | 269° |
| 2026-05-05 18:23 | 47.45696 | 8.56523 | 1394 ft | 72 kts | 275° |
| 2026-05-05 18:23 | 47.45767 | 8.55520 | 1448 ft | 117 kts | 275° |
| 2026-05-05 18:23 | 47.45862 | 8.54262 | 1949 ft | 126 kts | 276° |
| 2026-05-05 18:24 | 47.45953 | 8.52958 | 2762 ft | 131 kts | 272° |
| 2026-05-05 18:24 | 47.46043 | 8.51580 | 3544 ft | 138 kts | 274° |
| 2026-05-05 18:24 | 47.46146 | 8.50157 | 4328 ft | 143 kts | 273° |
| 2026-05-05 18:24 | 47.46241 | 8.48542 | 4772 ft | 171 kts | 268° |
| 2026-05-05 18:25 | 47.45820 | 8.46776 | 4897 ft | 202 kts | 233° |
| 2026-05-05 18:25 | 47.45147 | 8.45764 | 4896 ft | 215 kts | 225° |
| 2026-05-05 18:25 | 47.43806 | 8.43505 | 4893 ft | 223 kts | 244° |
| 2026-05-05 18:25 | 47.43318 | 8.41335 | 4902 ft | 223 kts | 253° |
| 2026-05-05 18:26 | 47.42880 | 8.39129 | 5003 ft | 221 kts | 253° |
| 2026-05-05 18:26 | 47.42161 | 8.37251 | 5252 ft | 218 kts | 226° |
| 2026-05-05 18:26 | 47.40868 | 8.36097 | 5577 ft | 218 kts | 203° |
| 2026-05-05 18:26 | 47.39356 | 8.35787 | 5976 ft | 224 kts | 181° |
| 2026-05-05 18:27 | 47.37849 | 8.36464 | 6374 ft | 233 kts | 155° |
| 2026-05-05 18:27 | 47.36650 | 8.38096 | 6748 ft | 240 kts | 128° |
| 2026-05-05 18:27 | 47.36058 | 8.40419 | 7121 ft | 248 kts | 99° |
| 2026-05-05 18:27 | 47.36134 | 8.42957 | 7519 ft | 249 kts | 85° |
| 2026-05-05 18:28 | 47.36519 | 8.48030 | 8329 ft | 249 kts | 86° |
| 2026-05-05 18:28 | 47.36687 | 8.50540 | 8735 ft | 249 kts | 86° |
| 2026-05-05 18:28 | 47.36861 | 8.53096 | 9151 ft | 252 kts | 86° |
| 2026-05-05 18:29 | 47.37038 | 8.55682 | 9579 ft | 254 kts | 86° |
| 2026-05-05 18:29 | 47.37215 | 8.58286 | 9976 ft | 255 kts | 86° |
| 2026-05-05 18:29 | 47.37392 | 8.60899 | 10360 ft | 256 kts | 86° |
| 2026-05-05 18:29 | 47.37569 | 8.63517 | 10751 ft | 257 kts | 86° |
| 2026-05-05 18:30 | 47.37746 | 8.66141 | 11145 ft | 257 kts | 86° |
| 2026-05-05 18:30 | 47.37923 | 8.68767 | 11539 ft | 258 kts | 86° |
| 2026-05-05 18:30 | 47.38099 | 8.71399 | 11944 ft | 258 kts | 86° |
| 2026-05-05 18:30 | 47.38275 | 8.74026 | 12348 ft | 257 kts | 86° |
| 2026-05-05 18:31 | 47.38449 | 8.76652 | 12761 ft | 257 kts | 86° |
| 2026-05-05 18:31 | 47.38622 | 8.79273 | 13178 ft | 257 kts | 86° |
| 2026-05-05 18:31 | 47.38792 | 8.81860 | 13592 ft | 257 kts | 86° |
| 2026-05-05 18:31 | 47.38965 | 8.84486 | 13976 ft | 257 kts | 86° |
| 2026-05-05 18:32 | 47.39137 | 8.87107 | 14357 ft | 257 kts | 86° |
| 2026-05-05 18:32 | 47.39309 | 8.89753 | 14749 ft | 260 kts | 86° |
| 2026-05-05 18:32 | 47.39481 | 8.92420 | 15132 ft | 262 kts | 86° |
| 2026-05-05 18:32 | 47.39657 | 8.95103 | 15529 ft | 264 kts | 86° |
| 2026-05-05 18:33 | 47.39832 | 8.97809 | 15940 ft | 266 kts | 86° |
| 2026-05-05 18:33 | 47.40007 | 9.00537 | 16350 ft | 268 kts | 86° |
| 2026-05-05 18:33 | 47.40182 | 9.03280 | 16762 ft | 269 kts | 87° |
| 2026-05-05 18:33 | 47.40312 | 9.06025 | 17165 ft | 267 kts | 95° |
| 2026-05-05 18:34 | 47.39794 | 9.08549 | 17571 ft | 259 kts | 126° |
| 2026-05-05 18:34 | 47.38595 | 9.10497 | 17875 ft | 259 kts | 142° |
| 2026-05-05 18:34 | 47.37242 | 9.12343 | 17882 ft | 271 kts | 138° |
| 2026-05-05 18:34 | 47.36009 | 9.14510 | 17885 ft | 280 kts | 130° |
| 2026-05-05 18:35 | 47.34886 | 9.16887 | 17889 ft | 283 kts | 128° |
| 2026-05-05 18:35 | 47.33731 | 9.19242 | 17881 ft | 284 kts | 131° |
| 2026-05-05 18:35 | 47.32522 | 9.21554 | 17880 ft | 285 kts | 132° |
| 2026-05-05 18:35 | 47.31312 | 9.23871 | 17883 ft | 286 kts | 131° |
| 2026-05-05 18:36 | 47.30115 | 9.26211 | 17885 ft | 286 kts | 131° |
| 2026-05-05 18:36 | 47.28934 | 9.28522 | 17882 ft | 286 kts | 131° |
| 2026-05-05 18:36 | 47.27733 | 9.30856 | 17877 ft | 286 kts | 131° |
| 2026-05-05 18:36 | 47.26526 | 9.33193 | 17874 ft | 287 kts | 131° |
| 2026-05-05 18:37 | 47.25320 | 9.35533 | 17870 ft | 286 kts | 131° |
| 2026-05-05 18:37 | 47.24119 | 9.37860 | 17867 ft | 285 kts | 131° |
| 2026-05-05 18:37 | 47.22919 | 9.40185 | 17869 ft | 286 kts | 131° |
| 2026-05-05 18:37 | 47.21718 | 9.42511 | 17865 ft | 286 kts | 131° |
| 2026-05-05 18:38 | 47.20514 | 9.44836 | 17866 ft | 286 kts | 131° |
| 2026-05-05 18:38 | 47.19441 | 9.46909 | 17863 ft | 287 kts | 132° |
| 2026-05-05 18:38 | 47.18220 | 9.49265 | 17860 ft | 287 kts | 132° |
| 2026-05-05 18:38 | 47.17024 | 9.51571 | 17859 ft | 288 kts | 132° |
| 2026-05-05 18:39 | 47.15809 | 9.53912 | 17863 ft | 289 kts | 132° |
| 2026-05-05 18:39 | 47.14590 | 9.56259 | 17859 ft | 289 kts | 132° |
| 2026-05-05 18:39 | 47.13370 | 9.58606 | 17860 ft | 289 kts | 132° |
| 2026-05-05 18:39 | 47.12150 | 9.60952 | 17851 ft | 289 kts | 132° |
| 2026-05-05 18:40 | 47.10930 | 9.63295 | 17856 ft | 289 kts | 133° |
| 2026-05-05 18:40 | 47.09712 | 9.65632 | 17859 ft | 288 kts | 133° |
| 2026-05-05 18:40 | 47.08490 | 9.67973 | 17854 ft | 290 kts | 133° |
| 2026-05-05 18:40 | 47.07266 | 9.70317 | 17862 ft | 289 kts | 133° |
| 2026-05-05 18:41 | 47.06051 | 9.72642 | 17865 ft | 286 kts | 133° |
| 2026-05-05 18:41 | 47.04836 | 9.74967 | 17870 ft | 288 kts | 133° |
| 2026-05-05 18:41 | 47.03612 | 9.77306 | 17874 ft | 290 kts | 133° |
| 2026-05-05 18:41 | 47.02399 | 9.79621 | 17873 ft | 291 kts | 133° |
| 2026-05-05 18:42 | 47.01165 | 9.81974 | 17872 ft | 292 kts | 133° |
| 2026-05-05 18:42 | 46.99930 | 9.84329 | 17873 ft | 292 kts | 133° |
| 2026-05-05 18:42 | 46.98689 | 9.86691 | 17872 ft | 292 kts | 133° |
| 2026-05-05 18:42 | 46.97452 | 9.89044 | 17870 ft | 291 kts | 133° |
| 2026-05-05 18:43 | 46.96218 | 9.91390 | 17870 ft | 290 kts | 134° |
| 2026-05-05 18:43 | 46.94988 | 9.93727 | 17860 ft | 288 kts | 134° |
| 2026-05-05 18:43 | 46.93772 | 9.96037 | 17872 ft | 285 kts | 134° |
| 2026-05-05 18:43 | 46.92554 | 9.98338 | 17884 ft | 288 kts | 133° |
| 2026-05-05 18:44 | 46.91336 | 10.00650 | 17895 ft | 286 kts | 134° |
| 2026-05-05 18:44 | 46.90116 | 10.02962 | 17879 ft | 287 kts | 134° |
| 2026-05-05 18:44 | 46.88893 | 10.05274 | 17888 ft | 288 kts | 134° |
| 2026-05-05 18:44 | 46.87680 | 10.07565 | 17896 ft | 290 kts | 134° |
| 2026-05-05 18:45 | 46.86431 | 10.09917 | 17596 ft | 296 kts | 134° |
| 2026-05-05 18:45 | 46.85159 | 10.12314 | 17285 ft | 300 kts | 133° |
| 2026-05-05 18:45 | 46.83878 | 10.14733 | 16988 ft | 303 kts | 133° |
| 2026-05-05 18:45 | 46.82568 | 10.17131 | 16667 ft | 299 kts | 138° |
| 2026-05-05 18:46 | 46.80929 | 10.18876 | 16365 ft | 288 kts | 159° |
| 2026-05-05 18:46 | 46.79052 | 10.19706 | 16055 ft | 279 kts | 178° |
| 2026-05-05 18:46 | 46.77163 | 10.19598 | 15921 ft | 266 kts | 195° |
| 2026-05-05 18:46 | 46.75490 | 10.18725 | 15919 ft | 254 kts | 211° |
| 2026-05-05 18:47 | 46.74108 | 10.17217 | 15919 ft | 245 kts | 226° |
| 2026-05-05 18:47 | 46.73032 | 10.15281 | 15927 ft | 246 kts | 233° |
| 2026-05-05 18:47 | 46.71846 | 10.13482 | 15927 ft | 247 kts | 225° |
| 2026-05-05 18:47 | 46.70612 | 10.11734 | 15944 ft | 249 kts | 226° |
| 2026-05-05 18:48 | 46.69371 | 10.09961 | 15899 ft | 251 kts | 226° |
| 2026-05-05 18:48 | 46.68149 | 10.08214 | 15257 ft | 232 kts | 226° |
| 2026-05-05 18:48 | 46.67037 | 10.06635 | 14517 ft | 219 kts | 226° |
| 2026-05-05 18:48 | 46.65953 | 10.05094 | 13799 ft | 217 kts | 226° |
| 2026-05-05 18:49 | 46.64873 | 10.03560 | 13002 ft | 217 kts | 225° |
| 2026-05-05 18:49 | 46.63805 | 10.02043 | 12236 ft | 218 kts | 225° |
| 2026-05-05 18:49 | 46.62714 | 10.00495 | 11467 ft | 220 kts | 224° |
| 2026-05-05 18:49 | 46.61614 | 9.98936 | 10654 ft | 221 kts | 224° |
| 2026-05-05 18:50 | 46.60513 | 9.97376 | 9839 ft | 222 kts | 223° |
| 2026-05-05 18:50 | 46.59410 | 9.95815 | 8943 ft | 219 kts | 223° |
| 2026-05-05 18:50 | 46.58339 | 9.94300 | 8058 ft | 214 kts | 224° |
| 2026-05-05 18:50 | 46.57306 | 9.92838 | 7242 ft | 184 kts | 223° |
| 2026-05-05 18:51 | 46.56512 | 9.91715 | 6705 ft | 136 kts | 222° |
| 2026-05-05 18:51 | 46.55869 | 9.90769 | 6445 ft | 129 kts | 223° |
| 2026-05-05 18:51 | 46.55209 | 9.89917 | 6088 ft | 119 kts | 216° |
| 2026-05-05 18:51 | 46.54547 | 9.89308 | 5785 ft | 114 kts | 209° |
| 2026-05-05 18:52 | 46.53876 | 9.88759 | 5615 ft | 103 kts | 209° |
| 2026-05-05 18:52 | 46.53358 | 9.88342 | 5616 ft | 65 kts | 208° |
| 2026-05-05 18:52 | 46.53082 | 9.88123 | 5609 ft | 43 kts | 207° |
| 2026-05-05 18:52 | 46.52983 | 9.87993 | 5603 ft | 16 kts | 291° |
| 2026-05-05 18:53 | 46.52995 | 9.87962 | 5604 ft | 0 kts | 304° |
| 2026-05-05 18:53 | 46.53059 | 9.87920 | 5604 ft | 16 kts | 334° |
| 2026-05-05 18:53 | 46.53054 | 9.87896 | 5610 ft | 0 kts | 99° |